Time;durP1;ratioP1;P1;durP2;ratioP2;P2;SDS_P1;SDS_P2;PMS_P1;PMS_P2;Temp;Humidity;BMP_temperature;BMP_pressure;BME280_temperature;BME280_humidity;BME280_pressure;Samples;Min_cycle;Max_cycle;Signal;HPM_P1;HPM_P2
2021/12/01 00:00:27;;;;;;;3.30;1.38;;;;;;;-1.34;85.20;96845.06;4912592;29;20569;-80
2021/12/01 00:02:54;;;;;;;4.25;1.83;;;;;;;-1.38;85.78;96845.97;4909627;29;20139;-77
2021/12/01 00:05:22;;;;;;;3.58;1.30;;;;;;;-1.48;85.66;96857.09;4907009;29;20543;-80
2021/12/01 00:07:50;;;;;;;2.17;1.35;;;;;;;-1.52;85.75;96851.16;4911565;29;20107;-79
2021/12/01 00:10:18;;;;;;;2.92;1.58;;;;;;;-1.51;85.67;96855.41;4910343;29;20581;-79
2021/12/01 00:12:44;;;;;;;4.60;1.70;;;;;;;-1.48;85.42;96857.09;4911728;29;20051;-79
2021/12/01 00:15:10;;;;;;;4.55;2.00;;;;;;;-1.54;85.43;96863.94;4911575;29;20048;-79
2021/12/01 00:17:36;;;;;;;3.85;1.48;;;;;;;-1.55;85.85;96859.69;4910590;29;20051;-79
2021/12/01 00:20:09;;;;;;;3.22;1.50;;;;;;;-1.56;85.66;96850.34;4910640;29;20047;-80
2021/12/01 00:22:35;;;;;;;2.80;1.65;;;;;;;-1.54;85.73;96861.38;4909984;29;20039;-76
2021/12/01 00:25:02;;;;;;;4.80;1.88;;;;;;;-1.53;85.41;96870.75;4911356;29;20127;-77
2021/12/01 00:27:29;;;;;;;3.55;1.80;;;;;;;-1.53;85.98;96865.63;4911958;29;20534;-79
2021/12/01 00:29:56;;;;;;;3.03;1.38;;;;;;;-1.59;85.43;96858.03;4910874;29;20126;-76
2021/12/01 00:32:22;;;;;;;2.45;1.13;;;;;;;-1.60;86.02;96865.69;4910212;29;20184;-79
2021/12/01 00:34:48;;;;;;;3.22;1.55;;;;;;;-1.59;85.82;96859.75;4911845;29;20039;-78
2021/12/01 00:37:14;;;;;;;4.05;1.75;;;;;;;-1.56;85.80;96864.81;4910573;29;20048;-77
2021/12/01 00:39:40;;;;;;;3.25;1.52;;;;;;;-1.54;85.89;96866.50;4910283;29;20054;-77
2021/12/01 00:42:06;;;;;;;4.00;1.80;;;;;;;-1.59;86.55;96852.09;4913358;29;20044;-77
2021/12/01 00:44:35;;;;;;;4.82;1.98;;;;;;;-1.52;86.27;96862.22;4910551;29;20498;-78
2021/12/01 00:49:26;;;;;;;3.28;1.45;;;;;;;-1.52;86.28;96863.91;4912225;29;20047;-76
2021/12/01 00:51:52;;;;;;;3.92;1.45;;;;;;;-1.53;86.21;96857.13;4910367;29;21096;-79
2021/12/01 00:54:18;;;;;;;5.05;1.50;;;;;;;-1.53;86.14;96874.97;4925612;29;20112;-78
2021/12/01 00:56:44;;;;;;;2.28;1.30;;;;;;;-1.66;86.33;96846.19;4917868;29;20043;-78
2021/12/01 00:59:11;;;;;;;2.75;1.40;;;;;;;-1.62;86.39;96858.03;4917184;29;20052;-74
2021/12/01 01:01:37;;;;;;;5.85;1.85;;;;;;;-1.57;86.46;96863.97;4911305;29;20048;-78
2021/12/01 01:04:03;;;;;;;4.47;1.98;;;;;;;-1.57;86.01;96863.97;4892643;29;20048;-75
2021/12/01 01:06:29;;;;;;;7.03;1.95;;;;;;;-1.52;86.41;96882.63;4911782;29;20050;-74
2021/12/01 01:08:55;;;;;;;3.50;1.63;;;;;;;-1.53;86.36;96878.38;4908629;29;20056;-79
2021/12/01 01:16:50;;;;;;;3.15;1.48;;;;;;;-1.60;86.21;96855.50;4910941;29;20044;-76
2021/12/01 01:19:17;;;;;;;3.78;1.67;;;;;;;-1.56;86.50;96858.00;4911679;29;21121;-77
2021/12/01 01:21:48;;;;;;;3.75;1.70;;;;;;;-1.49;86.94;96883.47;4894326;29;20048;-77
2021/12/01 01:24:14;;;;;;;4.93;1.40;;;;;;;-1.48;86.12;96875.78;4894419;29;20494;-76
2021/12/01 01:26:40;;;;;;;4.38;1.75;;;;;;;-1.47;86.72;96874.94;4922584;29;20067;-79
2021/12/01 01:29:06;;;;;;;5.78;1.65;;;;;;;-1.49;86.60;96873.28;4912795;29;20074;-78
2021/12/01 01:31:33;;;;;;;4.72;1.90;;;;;;;-1.47;86.69;96876.66;4912793;29;20063;-74
2021/12/01 01:33:59;;;;;;;3.60;1.48;;;;;;;-1.45;86.44;96869.84;4920837;29;20088;-77
2021/12/01 01:36:27;;;;;;;4.20;1.63;;;;;;;-1.42;86.46;96880.84;4894749;29;20051;-76
2021/12/01 01:38:54;;;;;;;1.60;1.13;;;;;;;-1.40;86.65;96883.38;4908770;29;20082;-77
2021/12/01 01:41:20;;;;;;;6.47;1.90;;;;;;;-1.42;86.53;96873.22;4908788;29;20584;-76
2021/12/01 01:43:49;;;;;;;5.90;1.92;;;;;;;-1.34;86.50;96880.78;4911231;29;20047;-75
2021/12/01 01:46:16;;;;;;;3.58;1.50;;;;;;;-1.34;86.62;96878.25;4910281;29;20506;-77
2021/12/01 01:48:48;;;;;;;2.13;1.27;;;;;;;-1.35;86.23;96873.16;4917343;29;20119;-81
2021/12/01 01:51:17;;;;;;;2.85;1.10;;;;;;;-1.37;86.67;96884.22;4910230;29;20042;-78
2021/12/01 01:53:43;;;;;;;4.85;1.40;;;;;;;-1.38;86.94;96879.97;4910988;29;20055;-77
2021/12/01 01:56:10;;;;;;;3.28;1.33;;;;;;;-1.29;86.51;96899.47;4912906;29;20137;-76
2021/12/01 01:58:36;;;;;;;2.97;1.50;;;;;;;-1.37;86.87;96878.25;4909741;29;20051;-77
2021/12/01 02:01:16;;;;;;;3.58;1.30;;;;;;;-1.31;86.61;96893.53;4910767;29;20039;-78
2021/12/01 02:03:45;;;;;;;3.65;1.60;;;;;;;-1.35;86.42;96891.84;4916846;29;20043;-75
2021/12/01 02:06:12;;;;;;;3.00;1.50;;;;;;;-1.36;86.76;96887.59;4897864;29;20040;-76
2021/12/01 02:08:40;;;;;;;5.85;1.90;;;;;;;-1.31;86.83;96890.13;4912892;29;20047;-78
2021/12/01 02:11:12;;;;;;;3.15;1.42;;;;;;;-1.33;86.40;96894.41;4911816;29;20047;-76
2021/12/01 02:13:40;;;;;;;3.13;1.75;;;;;;;-1.38;86.73;96897.84;4925327;29;20106;-79
2021/12/01 02:16:07;;;;;;;4.15;1.83;;;;;;;-1.40;86.21;96903.78;4910627;29;20172;-75
2021/12/01 02:18:33;;;;;;;2.88;1.52;;;;;;;-1.42;86.67;96896.16;4910342;29;20051;-75
2021/12/01 02:21:08;;;;;;;3.08;1.23;;;;;;;-1.38;86.15;96902.94;4905786;29;20059;-78
2021/12/01 02:23:37;;;;;;;5.88;1.88;;;;;;;-1.33;86.43;96902.06;4909542;29;20458;-76
2021/12/01 02:26:04;;;;;;;2.70;1.30;;;;;;;-1.41;86.50;96894.44;4908947;29;20580;-77
2021/12/01 02:28:31;;;;;;;3.65;1.45;;;;;;;-1.35;86.88;96899.50;4911354;29;20040;-78
2021/12/01 02:30:58;;;;;;;3.00;1.40;;;;;;;-1.48;86.94;96883.44;4923539;29;20048;-77
2021/12/01 02:33:24;;;;;;;4.50;1.60;;;;;;;-1.30;86.68;96909.66;4892729;29;20405;-75
2021/12/01 02:35:50;;;;;;;6.00;1.60;;;;;;;-1.29;86.33;96907.13;4908383;29;20062;-79
2021/12/01 02:38:17;;;;;;;4.50;1.50;;;;;;;-1.30;86.79;96913.09;4908000;29;20099;-77
2021/12/01 02:40:44;;;;;;;2.92;1.42;;;;;;;-1.46;86.71;96904.69;4921800;29;20047;-77
2021/12/01 02:43:10;;;;;;;3.83;1.48;;;;;;;-1.37;87.07;96919.94;4912066;29;20187;-78
2021/12/01 02:45:36;;;;;;;2.28;1.50;;;;;;;-1.39;86.62;96913.16;4908205;29;20039;-80
2021/12/01 02:48:02;;;;;;;4.95;1.70;;;;;;;-1.46;86.80;96898.75;4909856;29;20429;-75
2021/12/01 02:50:28;;;;;;;3.65;1.75;;;;;;;-1.33;86.43;96915.66;4909185;29;20143;-78
2021/12/01 02:52:54;;;;;;;7.47;2.22;;;;;;;-1.43;86.63;96914.00;4909007;29;20131;-76
2021/12/01 02:55:21;;;;;;;4.53;1.60;;;;;;;-1.45;86.72;96918.31;4909454;29;20078;-77
2021/12/01 02:57:52;;;;;;;3.47;1.67;;;;;;;-1.61;86.39;96894.59;4910068;29;20511;-76
2021/12/01 03:00:20;;;;;;;2.60;1.25;;;;;;;-1.43;85.88;96924.22;4912444;29;20799;-77
2021/12/01 03:02:47;;;;;;;3.35;1.40;;;;;;;-1.48;86.33;96923.44;4917430;29;20135;-74
2021/12/01 03:05:15;;;;;;;4.28;1.60;;;;;;;-1.45;86.82;96916.59;4921433;29;20036;-75
2021/12/01 03:07:42;;;;;;;2.72;1.48;;;;;;;-1.38;86.22;96935.25;4901873;29;20405;-78
2021/12/01 03:10:09;;;;;;;3.58;1.60;;;;;;;-1.40;86.78;96914.00;4913959;29;20182;-77
2021/12/01 03:12:37;;;;;;;2.25;1.10;;;;;;;-1.34;86.84;96926.72;4915263;29;20468;-78
2021/12/01 03:15:04;;;;;;;3.38;1.50;;;;;;;-1.36;87.07;96928.44;4939835;29;20044;-75
2021/12/01 03:17:31;;;;;;;2.70;1.58;;;;;;;-1.35;87.01;96930.13;4926305;29;20072;-74
2021/12/01 03:19:58;;;;;;;3.28;1.80;;;;;;;-1.40;86.52;96927.63;4917229;29;20100;-77
2021/12/01 03:30:23;;;;;;;3.63;1.17;;;;;;;-1.33;86.53;96935.25;5284925;23;20370;-77
2021/12/01 03:32:51;;;;;;;3.17;1.33;;;;;;;-1.55;86.45;96917.53;4915291;29;20051;-84
2021/12/01 03:35:17;;;;;;;2.97;1.55;;;;;;;-1.37;86.67;96939.50;4934291;28;20050;-77
2021/12/01 03:37:46;;;;;;;2.53;1.77;;;;;;;-1.68;86.57;96891.25;4932612;29;20051;-78
2021/12/01 03:40:14;;;;;;;5.40;1.73;;;;;;;-1.38;87.00;96932.69;4916343;29;20561;-82
2021/12/01 03:42:40;;;;;;;2.58;1.70;;;;;;;-1.35;86.75;96939.50;4934490;29;20051;-80
2021/12/01 03:45:07;;;;;;;5.63;1.98;;;;;;;-1.41;86.51;96940.38;4932710;29;20046;-83
2021/12/01 03:47:33;;;;;;;1.77;1.20;;;;;;;-1.41;86.11;96937.81;4937809;29;20054;-78
2021/12/01 03:50:00;;;;;;;3.22;1.42;;;;;;;-1.46;86.11;96949.78;4938880;29;20047;-79
2021/12/01 03:52:27;;;;;;;2.63;1.40;;;;;;;-1.69;86.50;96915.06;4915722;29;20851;-78
2021/12/01 03:54:53;;;;;;;2.08;1.27;;;;;;;-1.76;86.22;96903.19;4913271;29;20477;-77
2021/12/01 03:57:19;;;;;;;3.95;1.27;;;;;;;-1.62;86.65;96933.72;4929786;29;20131;-81
2021/12/01 03:59:45;;;;;;;3.80;1.73;;;;;;;-1.71;86.41;96919.31;4935185;29;20056;-80
2021/12/01 04:02:13;;;;;;;3.78;1.40;;;;;;;-1.62;86.26;96952.41;4932454;29;20071;-79
2021/12/01 04:04:38;;;;;;;6.72;2.13;;;;;;;-1.52;86.39;96964.25;4934378;28;20047;-82
2021/12/01 04:07:04;;;;;;;2.60;1.35;;;;;;;-1.65;86.16;96937.13;4932654;28;20142;-80
2021/12/01 04:09:31;;;;;;;5.15;2.08;;;;;;;-1.48;86.47;96961.69;4933689;29;20035;-81
2021/12/01 04:11:59;;;;;;;4.45;1.80;;;;;;;-1.48;86.35;96965.06;4932316;29;20050;-77
2021/12/01 04:14:25;;;;;;;3.85;1.63;;;;;;;-1.57;86.56;96939.66;4915590;29;20146;-81
2021/12/01 04:16:51;;;;;;;6.50;2.30;;;;;;;-1.64;86.38;96931.16;4917559;29;20039;-79
2021/12/01 04:19:16;;;;;;;2.78;1.50;;;;;;;-1.53;86.69;96952.34;4937602;29;20044;-79
2021/12/01 04:21:43;;;;;;;3.30;1.48;;;;;;;-1.57;85.75;96973.63;4941064;29;20054;-77
2021/12/01 04:24:10;;;;;;;2.25;1.20;;;;;;;-1.69;86.19;96964.34;4941298;29;20138;-77
2021/12/01 04:26:36;;;;;;;1.45;1.00;;;;;;;-1.74;86.12;96952.47;4940997;29;20497;-79
2021/12/01 04:29:04;;;;;;;5.63;2.08;;;;;;;-1.74;86.02;96958.41;4953594;29;20969;-79
2021/12/01 04:31:33;;;;;;;6.10;2.20;;;;;;;-1.77;86.24;96949.94;4912401;29;20047;-75
2021/12/01 04:34:00;;;;;;;6.10;2.20;;;;;;;-1.64;86.25;96971.13;4939798;29;20045;-78
2021/12/01 04:36:31;;;;;;;5.20;2.17;;;;;;;-1.58;86.40;96977.03;4936446;29;20043;-79
2021/12/01 04:38:57;;;;;;;7.97;2.33;;;;;;;-1.84;86.99;96933.84;4912498;29;20048;-78
2021/12/01 04:41:25;;;;;;;6.20;2.85;;;;;;;-1.68;86.01;96972.84;4938536;29;20063;-79
2021/12/01 04:43:53;;;;;;;4.18;1.73;;;;;;;-1.77;85.88;96973.75;4936948;29;20519;-78
2021/12/01 04:46:20;;;;;;;6.00;1.95;;;;;;;-1.62;86.63;96984.72;4924319;29;20051;-80
2021/12/01 04:48:48;;;;;;;4.22;1.80;;;;;;;-1.60;86.90;96993.22;4938935;29;20043;-82
2021/12/01 04:51:17;;;;;;;5.25;1.90;;;;;;;-1.58;86.82;96981.31;4940658;29;20059;-79
2021/12/01 04:53:44;;;;;;;4.32;1.80;;;;;;;-1.60;86.48;96976.19;4939091;29;20055;-80
2021/12/01 04:56:10;;;;;;;6.50;2.00;;;;;;;-1.67;86.05;96966.91;4897654;29;20505;-81
2021/12/01 04:58:36;;;;;;;4.65;1.80;;;;;;;-1.67;85.83;96984.75;4938906;29;20044;-78
2021/12/01 05:01:03;;;;;;;5.40;1.95;;;;;;;-1.75;86.31;96986.50;4940385;28;20385;-84
2021/12/01 05:03:32;;;;;;;4.35;2.00;;;;;;;-1.65;86.48;97005.13;4941300;29;20710;-79
2021/12/01 05:05:58;;;;;;;6.55;2.63;;;;;;;-1.65;86.11;96997.47;4937933;28;20417;-80
2021/12/01 05:08:23;;;;;;;3.47;1.95;;;;;;;-1.79;86.50;96974.59;4939089;29;20059;-81
2021/12/01 05:10:50;;;;;;;6.43;2.28;;;;;;;-1.82;86.14;96971.22;4940205;29;20051;-81
2021/12/01 05:13:17;;;;;;;4.78;1.85;;;;;;;-1.67;86.10;97010.25;4939804;29;20099;-83
2021/12/01 05:15:43;;;;;;;4.10;2.05;;;;;;;-1.76;86.36;97000.09;4940901;29;20051;-78
2021/12/01 05:18:09;;;;;;;5.85;1.90;;;;;;;-1.84;85.88;96978.00;4940042;29;20055;-78
2021/12/01 05:20:36;;;;;;;5.05;2.40;;;;;;;-1.70;86.76;96989.88;4940889;29;20048;-78
2021/12/01 05:23:02;;;;;;;4.65;1.98;;;;;;;-1.68;86.13;97000.91;4943729;29;20051;-80
2021/12/01 05:25:28;;;;;;;6.13;2.38;;;;;;;-1.74;86.83;96990.72;4931891;29;20054;-78
2021/12/01 05:27:54;;;;;;;4.30;1.90;;;;;;;-1.67;86.37;97008.53;4920200;29;20047;-79
2021/12/01 05:30:20;;;;;;;3.50;1.60;;;;;;;-1.64;86.34;97019.59;4924442;29;20170;-78
2021/12/01 05:32:47;;;;;;;4.90;2.28;;;;;;;-1.54;86.78;97024.63;4946909;29;20142;-79
2021/12/01 05:35:14;;;;;;;6.18;2.28;;;;;;;-1.60;86.78;97019.56;4948690;29;20078;-79
2021/12/01 05:37:40;;;;;;;5.03;2.58;;;;;;;-1.59;86.08;97031.44;4942688;29;20538;-80
2021/12/01 05:40:07;;;;;;;6.18;2.65;;;;;;;-1.58;86.43;97035.69;4942724;29;20048;-80
2021/12/01 05:42:33;;;;;;;4.82;2.10;;;;;;;-1.76;85.93;97013.66;4941398;29;20074;-81
2021/12/01 05:44:58;;;;;;;4.20;1.83;;;;;;;-1.55;86.46;97039.97;4941634;29;20070;-80
2021/12/01 05:47:24;;;;;;;3.65;1.67;;;;;;;-1.56;86.06;97040.81;4941557;29;20047;-77
2021/12/01 05:49:50;;;;;;;5.53;2.15;;;;;;;-1.71;86.00;97008.56;4909956;29;20122;-82
2021/12/01 05:52:17;;;;;;;4.03;2.35;;;;;;;-1.48;87.05;97028.84;4931789;29;20051;-78
2021/12/01 05:54:43;;;;;;;5.32;2.08;;;;;;;-1.42;86.25;97040.72;4946536;29;20111;-80
2021/12/01 05:57:10;;;;;;;4.30;1.83;;;;;;;-1.64;86.54;97010.22;4947194;29;20043;-81
2021/12/01 05:59:36;;;;;;;4.13;1.98;;;;;;;-1.55;86.26;97032.31;4942460;29;20050;-80
2021/12/01 06:02:02;;;;;;;4.00;2.03;;;;;;;-1.49;86.34;97041.63;4943033;29;20429;-77
2021/12/01 06:04:28;;;;;;;3.97;1.80;;;;;;;-1.48;86.22;97061.19;4939970;29;20190;-80
2021/12/01 06:06:54;;;;;;;5.22;2.08;;;;;;;-1.50;86.08;97060.34;4940654;29;20174;-82
2021/12/01 06:09:20;;;;;;;5.35;2.28;;;;;;;-1.52;86.00;97068.84;4944129;29;20158;-79
2021/12/01 06:11:47;;;;;;;5.20;1.90;;;;;;;-1.52;86.39;97057.78;4920723;29;20172;-82
2021/12/01 06:14:15;;;;;;;7.55;2.08;;;;;;;-1.43;85.91;97073.06;4939865;29;20054;-83
2021/12/01 06:16:42;;;;;;;5.55;1.92;;;;;;;-1.69;86.28;97040.84;4939752;28;20054;-81
2021/12/01 06:19:08;;;;;;;7.07;2.28;;;;;;;-1.63;86.28;97055.28;4948793;29;20043;-78
2021/12/01 06:21:34;;;;;;;3.70;2.00;;;;;;;-1.58;86.21;97078.22;4946490;29;20035;-79
2021/12/01 06:24:00;;;;;;;4.15;1.80;;;;;;;-1.52;86.05;97071.41;4946995;29;20401;-79
2021/12/01 06:26:26;;;;;;;6.18;2.80;;;;;;;-1.44;85.78;97075.63;4939611;29;20051;-84
2021/12/01 06:28:52;;;;;;;4.03;1.80;;;;;;;-1.56;85.74;97041.66;4939621;28;20047;-81
2021/12/01 06:31:18;;;;;;;6.32;2.08;;;;;;;-1.53;85.93;97040.78;4953039;29;20118;-81
2021/12/01 06:33:44;;;;;;;4.32;2.25;;;;;;;-1.31;85.88;97073.84;4958124;29;20051;-78
2021/12/01 06:36:10;;;;;;;4.50;2.20;;;;;;;-1.29;85.56;97100.19;4963682;29;20150;-81
2021/12/01 06:38:38;;;;;;;4.05;2.33;;;;;;;-1.31;85.96;97082.34;4961859;29;20158;-78
2021/12/01 06:41:05;;;;;;;3.35;1.90;;;;;;;-1.26;85.80;97083.19;4950489;29;20106;-79
2021/12/01 06:43:31;;;;;;;7.65;2.30;;;;;;;-1.50;86.10;97042.47;4952239;29;20058;-78
2021/12/01 06:45:57;;;;;;;3.92;1.98;;;;;;;-1.20;86.10;97087.41;4934357;29;20040;-78
2021/12/01 06:48:23;;;;;;;3.40;1.92;;;;;;;-1.25;85.90;97082.31;4934117;29;20066;-78
2021/12/01 06:50:49;;;;;;;4.70;2.03;;;;;;;-1.22;85.56;97089.09;4948088;29;20462;-79
2021/12/01 06:53:15;;;;;;;3.30;1.90;;;;;;;-1.25;85.90;97087.44;4947184;29;20055;-82
2021/12/01 06:55:41;;;;;;;4.25;2.22;;;;;;;-1.23;85.75;97106.13;4944330;29;20046;-84
2021/12/01 06:58:07;;;;;;;10.07;4.18;;;;;;;-1.38;85.56;97071.34;4927304;29;20043;-81
2021/12/01 07:00:33;;;;;;;4.65;2.30;;;;;;;-1.27;85.77;97084.03;4944582;29;20054;-79
2021/12/01 07:02:59;;;;;;;4.72;2.17;;;;;;;-1.23;85.93;97098.47;4942274;29;20098;-82
2021/12/01 07:05:25;;;;;;;6.63;2.95;;;;;;;-1.33;86.10;97073.84;4945011;28;20449;-79
2021/12/01 07:07:52;;;;;;;6.45;3.70;;;;;;;-1.22;85.44;97096.75;4961370;28;20043;-80
2021/12/01 07:10:19;;;;;;;6.15;2.28;;;;;;;-1.02;86.20;97122.19;4942503;29;20043;-80
2021/12/01 07:12:45;;;;;;;7.13;2.10;;;;;;;-1.33;85.47;97081.50;4940760;29;20043;-81
2021/12/01 07:15:12;;;;;;;4.15;2.15;;;;;;;-0.94;85.67;97127.25;4943220;29;20043;-80
2021/12/01 07:17:40;;;;;;;3.83;1.90;;;;;;;-1.02;85.65;97129.84;4943983;29;20035;-82
2021/12/01 07:20:06;;;;;;;4.00;2.30;;;;;;;-1.17;85.33;97096.72;4944625;29;20043;-80
2021/12/01 07:22:33;;;;;;;7.55;2.40;;;;;;;-1.14;85.58;97106.94;4944466;29;20035;-81
2021/12/01 07:24:59;;;;;;;4.18;2.00;;;;;;;-0.99;85.09;97136.63;4945197;29;20086;-81
2021/12/01 07:27:25;;;;;;;6.30;2.28;;;;;;;-1.17;86.06;97122.25;4941875;29;20229;-81
2021/12/01 07:29:51;;;;;;;4.38;2.20;;;;;;;-1.02;85.18;97145.19;4943057;29;20526;-82
2021/12/01 07:32:17;;;;;;;6.57;2.85;;;;;;;-1.22;85.89;97104.41;4927028;29;20111;-82
2021/12/01 07:34:43;;;;;;;5.25;2.47;;;;;;;-1.06;85.87;97141.75;4924152;29;20043;-80
2021/12/01 07:37:15;;;;;;;2.92;1.75;;;;;;;-1.12;84.88;97128.19;4941392;29;20036;-80
2021/12/01 07:39:41;;;;;;;5.95;2.25;;;;;;;-1.12;85.76;97116.28;4928180;29;20039;-81
2021/12/01 07:42:08;;;;;;;4.75;1.92;;;;;;;-0.98;85.37;97131.50;4910838;29;20039;-80
2021/12/01 07:44:34;;;;;;;4.32;1.83;;;;;;;-0.92;85.10;97146.81;4943618;29;20110;-83
2021/12/01 07:47:01;;;;;;;5.72;2.47;;;;;;;-0.93;85.12;97154.50;4946217;28;20047;-83
2021/12/01 07:49:27;;;;;;;5.13;2.35;;;;;;;-1.11;85.31;97122.22;4943409;28;20032;-78
2021/12/01 07:51:53;;;;;;;3.85;2.10;;;;;;;-0.82;85.33;97169.75;4942346;29;20070;-79
2021/12/01 07:54:20;;;;;;;3.08;1.92;;;;;;;-0.87;85.01;97161.25;4951849;29;20051;-80
2021/12/01 07:56:46;;;;;;;5.45;2.60;;;;;;;-0.89;84.98;97151.06;4946372;29;20058;-82
2021/12/01 07:59:15;;;;;;;5.43;2.50;;;;;;;-0.95;85.59;97159.59;4946942;29;20035;-82
2021/12/01 08:01:44;;;;;;;4.07;1.92;;;;;;;-0.93;85.12;97175.75;4935609;29;20170;-78
2021/12/01 08:04:12;;;;;;;4.95;1.90;;;;;;;-0.88;85.81;97177.44;4926153;29;20128;-79
2021/12/01 08:06:39;;;;;;;4.05;2.08;;;;;;;-1.18;85.16;97120.56;4953419;29;20089;-80
2021/12/01 08:09:09;;;;;;;3.83;2.25;;;;;;;-1.14;85.04;97129.91;4946937;29;20103;-79
2021/12/01 08:11:35;;;;;;;3.75;1.95;;;;;;;-0.95;84.88;97177.47;4929731;29;20039;-82
2021/12/01 08:14:01;;;;;;;5.88;2.20;;;;;;;-1.17;85.34;97138.44;4945074;28;20130;-81
2021/12/01 08:16:27;;;;;;;6.00;2.03;;;;;;;-0.87;84.94;97189.34;4914449;29;20086;-81
2021/12/01 08:18:56;;;;;;;3.97;2.00;;;;;;;-0.87;84.85;97187.63;4911339;29;20067;-82
2021/12/01 08:21:24;;;;;;;4.25;2.35;;;;;;;-1.35;84.92;97128.31;4932301;29;20139;-80
2021/12/01 08:23:51;;;;;;;4.47;2.22;;;;;;;-0.94;84.81;97189.38;4939099;29;20047;-78
2021/12/01 08:26:17;;;;;;;5.50;2.60;;;;;;;-1.10;85.73;97144.34;4922573;29;20094;-81
2021/12/01 08:28:45;;;;;;;4.07;2.22;;;;;;;-0.99;85.11;97193.63;4939916;29;20259;-81
2021/12/01 08:31:21;;;;;;;7.13;3.33;;;;;;;-0.97;85.30;97189.38;4941344;29;20177;-79
2021/12/01 08:33:47;;;;;;;7.45;2.50;;;;;;;-0.96;85.06;97162.16;4927141;29;20047;-80
2021/12/01 08:36:14;;;;;;;5.00;2.70;;;;;;;-1.01;85.34;97174.94;4943331;29;20130;-81
2021/12/01 08:38:42;;;;;;;5.38;2.42;;;;;;;-0.99;85.21;97177.47;4910719;29;20094;-79
2021/12/01 08:41:08;;;;;;;5.43;2.13;;;;;;;-0.88;85.54;97193.59;4942573;29;20039;-79
2021/12/01 08:43:35;;;;;;;6.07;1.85;;;;;;;-1.01;84.87;97169.84;4942822;29;20073;-79
2021/12/01 08:46:03;;;;;;;6.07;2.22;;;;;;;-0.88;85.40;97183.38;4944936;29;20079;-77
2021/12/01 08:48:29;;;;;;;4.82;2.70;;;;;;;-0.83;85.69;97196.97;4907137;29;20071;-79
2021/12/01 08:50:56;;;;;;;6.25;2.83;;;;;;;-0.78;85.65;97204.63;4943686;28;20062;-78
2021/12/01 08:53:23;;;;;;;3.85;2.13;;;;;;;-0.91;85.08;97178.31;4944337;28;20066;-77
2021/12/01 08:55:50;;;;;;;3.75;2.15;;;;;;;-0.76;84.85;97198.66;4925129;29;20043;-80
2021/12/01 08:58:16;;;;;;;6.82;2.97;;;;;;;-0.73;85.71;97202.88;4940076;29;20099;-78
2021/12/01 09:00:45;;;;;;;6.13;2.50;;;;;;;-0.74;85.39;97200.34;4942712;29;20043;-78
2021/12/01 09:03:13;;;;;;;5.13;2.40;;;;;;;-0.84;85.03;97187.63;4925689;29;20055;-78
2021/12/01 09:05:40;;;;;;;6.85;2.83;;;;;;;-0.79;85.60;97197.81;4924786;29;20043;-77
2021/12/01 09:08:06;;;;;;;5.80;2.53;;;;;;;-1.01;85.09;97171.53;4940315;29;20054;-78
2021/12/01 09:10:32;;;;;;;6.30;2.95;;;;;;;-0.86;84.77;97209.75;4938980;29;20435;-76
2021/12/01 09:12:59;;;;;;;5.70;2.40;;;;;;;-0.94;85.68;97194.47;4940297;29;20426;-79
2021/12/01 09:15:26;;;;;;;5.78;2.60;;;;;;;-1.41;85.14;97131.72;4940788;28;20434;-79
2021/12/01 09:17:52;;;;;;;4.28;2.40;;;;;;;-0.88;85.14;97205.53;4944457;29;20050;-79
2021/12/01 09:20:18;;;;;;;6.25;2.53;;;;;;;-0.80;84.73;97207.19;4911987;29;20047;-80
2021/12/01 09:22:44;;;;;;;4.38;2.40;;;;;;;-0.91;85.34;97196.19;4941859;29;20047;-79
2021/12/01 09:25:10;;;;;;;8.43;3.25;;;;;;;-0.94;84.85;97179.16;4938560;29;20058;-80
2021/12/01 09:27:37;;;;;;;5.15;2.40;;;;;;;-0.74;85.28;97206.28;4911600;29;20043;-79
2021/12/01 09:30:04;;;;;;;4.78;2.75;;;;;;;-0.69;84.94;97211.41;4928748;29;20154;-79
2021/12/01 09:32:34;;;;;;;6.50;3.28;;;;;;;-0.74;85.38;97206.28;4942247;29;20070;-79
2021/12/01 09:35:01;;;;;;;3.83;2.42;;;;;;;-0.88;84.68;97190.19;4923186;29;20055;-82
2021/12/01 09:37:28;;;;;;;5.40;2.63;;;;;;;-0.73;84.79;97222.47;4939893;29;20055;-81
2021/12/01 09:39:54;;;;;;;6.65;3.00;;;;;;;-0.79;85.71;97213.16;4940169;29;20432;-78
2021/12/01 09:42:21;;;;;;;6.35;2.92;;;;;;;-0.82;85.41;97197.84;4922936;29;20051;-78
2021/12/01 09:44:49;;;;;;;5.63;2.85;;;;;;;-0.77;85.71;97217.38;4908345;29;20529;-78
2021/12/01 09:47:19;;;;;;;5.22;2.50;;;;;;;-0.88;84.88;97213.19;4921733;29;20054;-81
2021/12/01 09:49:46;;;;;;;3.80;2.58;;;;;;;-0.88;85.01;97213.19;4937693;28;20047;-78
2021/12/01 09:52:13;;;;;;;5.15;2.78;;;;;;;-0.80;84.89;97237.00;4940601;29;20054;-78
2021/12/01 09:54:43;;;;;;;4.80;2.97;;;;;;;-1.03;85.14;97188.56;4938671;29;20142;-77
2021/12/01 09:57:13;;;;;;;8.18;4.13;;;;;;;-1.05;85.57;97191.13;4927982;29;20043;-77
2021/12/01 09:59:41;;;;;;;4.45;2.45;;;;;;;-0.71;85.04;97247.16;4939188;29;20125;-81
2021/12/01 10:02:08;;;;;;;5.63;2.60;;;;;;;-1.02;85.23;97203.88;4940450;29;20316;-81
2021/12/01 10:04:37;;;;;;;5.57;2.63;;;;;;;-0.87;85.34;97240.41;4926484;29;20047;-79
2021/12/01 10:07:17;;;;;;;4.97;2.60;;;;;;;-0.93;85.88;97231.09;4928171;29;20071;-79
2021/12/01 10:09:57;;;;;;;6.47;2.47;;;;;;;-1.17;85.52;97194.59;4923332;29;21201;-79
2021/12/01 10:12:24;;;;;;;4.50;2.45;;;;;;;-0.78;85.40;97255.72;4940646;29;20070;-80
2021/12/01 10:14:51;;;;;;;4.55;2.13;;;;;;;-0.84;85.27;97241.25;4930481;29;20047;-79
2021/12/01 10:17:35;;;;;;;6.25;3.05;;;;;;;-0.86;84.96;97248.06;4945718;29;20066;-79
2021/12/01 10:20:16;;;;;;;3.25;1.77;;;;;;;-0.86;85.53;97237.84;4943349;29;20059;-79
2021/12/01 10:23:06;;;;;;;4.32;2.58;;;;;;;-0.77;85.66;97249.72;4939241;29;20553;-82
2021/12/01 10:25:33;;;;;;;5.32;2.70;;;;;;;-0.87;85.36;97235.31;4935309;29;20040;-79
2021/12/01 10:27:59;;;;;;;4.72;2.63;;;;;;;-1.08;85.49;97197.09;4943784;29;20051;-79
2021/12/01 10:30:44;;;;;;;3.78;2.30;;;;;;;-1.05;85.47;97193.69;4909622;29;20145;-82
2021/12/01 10:33:13;;;;;;;6.22;2.30;;;;;;;-0.76;85.44;97241.22;4937805;29;20138;-85
2021/12/01 10:35:40;;;;;;;5.82;2.50;;;;;;;-0.83;84.95;97237.00;4939703;29;20143;-84
2021/12/01 10:38:08;;;;;;;6.00;2.58;;;;;;;-0.88;85.03;97231.91;4920127;29;20050;-83
2021/12/01 10:40:37;;;;;;;4.63;2.80;;;;;;;-0.63;85.80;97265.84;4940316;29;20058;-84
2021/12/01 10:43:09;;;;;;;5.65;2.90;;;;;;;-0.64;85.44;97261.59;4929181;29;20048;-79
2021/12/01 10:45:47;;;;;;;4.88;2.60;;;;;;;-0.86;85.17;97224.25;4928359;29;20067;-81
2021/12/01 10:48:22;;;;;;;4.82;2.35;;;;;;;-0.63;84.53;97262.44;4932481;29;20567;-80
2021/12/01 10:50:49;;;;;;;4.85;2.38;;;;;;;-0.71;85.26;97246.31;4942452;29;20063;-81
2021/12/01 10:53:18;;;;;;;4.88;2.60;;;;;;;-0.61;85.02;97259.03;4914575;29;20094;-84
2021/12/01 10:55:52;;;;;;;6.03;2.65;;;;;;;-0.55;84.78;97262.44;4940923;29;20039;-82
2021/12/01 10:58:18;;;;;;;16.48;7.53;;;;;;;-0.67;85.13;97248.84;4939769;29;20063;-79
2021/12/01 11:00:50;;;;;;;7.47;2.90;;;;;;;-0.98;85.36;97212.38;4942566;29;20720;-80
2021/12/01 11:03:24;;;;;;;8.43;2.78;;;;;;;-0.64;85.32;97264.16;4932822;29;20048;-79
2021/12/01 11:06:08;;;;;;;2.55;2.17;;;;;;;-0.72;85.22;97272.72;4939644;29;20646;-78
2021/12/01 11:08:41;;;;;;;6.03;2.80;;;;;;;-1.41;85.43;97167.44;4926647;29;20149;-78
2021/12/01 11:11:06;;;;;;;;;;;;;;;-0.74;85.84;97279.53;4919030;29;20113;-82
2021/12/01 11:13:33;;;;;;;5.43;2.58;;;;;;;-0.85;85.48;97249.75;4944795;29;19918;-80
2021/12/01 11:16:08;;;;;;;5.82;2.60;;;;;;;-0.94;85.31;97240.44;4932774;29;20046;-78
2021/12/01 11:18:37;;;;;;;6.18;2.63;;;;;;;-1.18;85.64;97186.91;4927335;29;20114;-81
2021/12/01 11:21:12;;;;;;;4.38;2.60;;;;;;;-0.78;85.47;97282.09;4955223;29;20091;-79
2021/12/01 11:23:41;;;;;;;3.05;2.00;;;;;;;-0.82;85.30;97287.22;4914062;29;20035;-80
2021/12/01 11:26:13;;;;;;;2.35;1.90;;;;;;;-0.91;84.77;97272.78;4936100;29;20039;-79
2021/12/01 11:28:51;;;;;;;3.95;1.73;;;;;;;-1.16;85.19;97238.81;4953848;29;20180;-80
2021/12/01 11:31:18;;;;;;;4.03;2.28;;;;;;;-0.93;85.00;97269.38;4940570;29;20047;-79
2021/12/01 11:33:46;;;;;;;4.93;2.35;;;;;;;-0.93;85.54;97282.97;4954634;29;20179;-78
2021/12/01 11:36:25;;;;;;;3.38;2.40;;;;;;;-0.94;85.73;97270.25;4940049;29;20061;-79
2021/12/01 11:38:54;;;;;;;4.97;2.30;;;;;;;-0.91;85.83;97278.72;4922967;29;20039;-79
2021/12/01 11:41:20;;;;;;;4.78;2.45;;;;;;;-0.94;85.72;97280.44;4970503;28;20078;-81
2021/12/01 11:43:46;;;;;;;5.55;2.40;;;;;;;-1.13;84.89;97264.31;4957135;29;20039;-78
2021/12/01 11:46:13;;;;;;;6.07;2.38;;;;;;;-1.09;85.41;97279.63;4959750;29;20043;-82
2021/12/01 11:48:48;;;;;;;6.00;2.20;;;;;;;-1.00;86.02;97281.31;4943143;29;20070;-80
2021/12/01 11:51:17;;;;;;;3.95;2.08;;;;;;;-0.91;85.29;97309.38;4946649;29;20042;-79